Time;durP1;ratioP1;P1;durP2;ratioP2;P2;SDS_P1;SDS_P2;PMS_P1;PMS_P2;Temp;Humidity;BMP_temperature;BMP_pressure;BME280_temperature;BME280_humidity;BME280_pressure;Samples;Min_cycle;Max_cycle;Signal;HPM_P1;HPM_P2
2022/06/22 00:00:18;;;;;;;;;;;25.60;42.30;;;29.76;27.15;101112.09;5098321;28;19915;-12
2022/06/22 00:02:45;;;;;;;;;;;25.60;42.30;;;29.72;26.94;101108.84;5116699;28;19916;-12
2022/06/22 00:05:18;;;;;;;;;;;25.60;42.30;;;29.76;27.01;101112.09;5098075;28;19915;-12
2022/06/22 00:07:50;;;;;;;;;;;25.60;42.30;;;29.71;27.00;101101.75;5097919;28;19915;-12
2022/06/22 00:10:22;;;;;;;;;;;25.60;42.30;;;29.77;26.89;101115.63;5098316;28;19923;-12
2022/06/22 00:12:54;;;;;;;;;;;25.60;42.30;;;29.75;26.92;101111.25;5116146;28;19916;-12
2022/06/22 00:15:42;;;;;;;;;;;25.60;42.30;;;29.71;27.05;101117.94;5097851;28;19916;-12
2022/06/22 00:18:20;;;;;;;;;;;25.60;42.30;;;29.70;27.12;101113.56;5097146;28;20272;-12
2022/06/22 00:20:51;;;;;;;;;;;25.60;42.30;;;29.76;26.90;101128.28;5116065;28;20372;-12
2022/06/22 00:23:23;;;;;;;;;;;25.60;42.30;;;29.75;26.80;101126.56;5096283;28;19923;-12
2022/06/22 00:25:49;;;;;;;;;;;25.60;42.30;;;29.74;27.02;101125.72;5116004;28;20310;-12
2022/06/22 00:28:25;;;;;;;;;;;25.60;42.30;;;29.67;26.79;101113.84;5114283;28;19916;-12
2022/06/22 00:30:57;;;;;;;;;;;25.60;42.30;;;29.68;26.93;101114.69;5116235;28;19941;-12
2022/06/22 00:33:23;;;;;;;;;;;25.60;42.30;;;29.70;27.04;101121.63;5115980;28;19919;-12
2022/06/22 00:36:06;;;;;;;;;;;25.50;42.30;;;29.69;27.13;101117.22;5115694;28;19960;-12
2022/06/22 00:38:33;;;;;;;;;;;25.50;42.30;;;29.68;27.06;101112.81;5115584;28;19916;-12
2022/06/22 00:41:15;;;;;;;;;;;25.60;42.30;;;29.67;26.96;101112.97;5115746;28;19915;-12
2022/06/22 00:43:40;;;;;;;;;;;25.60;42.30;;;29.72;27.09;101121.47;5098092;28;19923;-12
2022/06/22 00:46:16;;;;;;;;;;;25.50;42.30;;;29.67;27.12;101111.16;5116247;28;19916;-12
2022/06/22 00:48:42;;;;;;;;;;;25.50;42.30;;;29.66;27.10;101109.44;5115501;28;20275;-12
2022/06/22 00:51:15;;;;;;;;;;;25.50;42.30;;;29.65;26.97;101105.03;5097896;28;19916;-12
2022/06/22 00:53:50;;;;;;;;;;;25.50;42.30;;;29.71;27.14;101114.38;5115984;28;19919;-12
2022/06/22 00:56:34;;;;;;;;;;;25.60;42.40;;;29.71;27.15;101106.31;5097458;28;19931;-12
2022/06/22 00:59:05;;;;;;;;;;;25.50;42.30;;;29.66;27.05;101097.81;5115753;28;20392;-12
2022/06/22 01:01:44;;;;;;;;;;;25.50;42.30;;;29.68;26.97;101114.69;5115789;28;19915;-12
2022/06/22 01:04:18;;;;;;;;;;;25.50;42.30;;;29.67;27.14;101111.16;5097435;28;19922;-12
2022/06/22 01:06:49;;;;;;;;;;;25.50;42.30;;;29.69;27.03;101109.16;5096173;28;19946;-12
2022/06/22 01:09:32;;;;;;;;;;;25.50;42.30;;;29.67;27.03;101096.81;5097348;28;19920;-12
2022/06/22 01:12:23;;;;;;;;;;;25.50;42.30;;;29.67;27.08;101103.06;5096972;28;19916;-12
2022/06/22 01:15:27;;;;;;;;;;;25.50;42.30;;;29.68;27.13;101101.22;5097552;28;19945;-12
2022/06/22 01:18:12;;;;;;;;;;;25.50;42.30;;;29.66;27.08;101100.50;5097170;28;19915;-12
2022/06/22 01:20:59;;;;;;;;;;;25.50;42.30;;;29.65;27.03;101104.19;5115473;28;19922;-12
2022/06/22 01:23:38;;;;;;;;;;;25.50;42.80;;;29.61;27.04;101086.63;5096744;28;19915;-12
2022/06/22 01:26:22;;;;;;;;;;;25.50;42.30;;;29.61;27.10;101092.03;5115034;28;19960;-12
2022/06/22 01:29:06;;;;;;;;;;;25.50;42.30;;;29.64;27.11;101102.50;5114724;28;19915;-12
2022/06/22 01:31:33;;;;;;;;;;;25.40;42.20;;;29.64;26.99;101100.66;5115430;28;20263;-12
2022/06/22 01:33:59;;;;;;;;;;;25.50;42.30;;;29.64;27.20;101107.91;5114820;28;19916;-12
2022/06/22 01:36:31;;;;;;;;;;;25.50;42.30;;;29.60;27.00;101107.31;5096469;28;19950;-12
2022/06/22 01:38:57;;;;;;;;;;;25.40;42.20;;;29.65;27.13;101114.97;5114975;28;19915;-12
2022/06/22 01:41:39;;;;;;;;;;;25.50;42.30;;;29.58;26.93;101090.44;5114186;28;20388;-12
2022/06/22 01:44:19;;;;;;;;;;;25.50;42.30;;;29.58;27.20;101100.38;5115337;28;20085;-12
2022/06/22 01:47:06;;;;;;;;;;;25.50;42.30;;;29.63;26.99;101109.72;5114859;28;19915;-12
2022/06/22 01:49:36;;;;;;;;;;;25.50;42.30;;;29.61;27.02;101113.56;5114372;28;19959;-12
2022/06/22 01:52:11;;;;;;;;;;;25.50;42.30;;;29.61;26.91;101119.81;5114675;28;20329;-12
2022/06/22 01:54:43;;;;;;;;;;;25.40;42.20;;;29.62;27.00;101108.03;5096519;28;20420;-12
2022/06/22 01:57:15;;;;;;;;;;;25.40;42.20;;;29.61;27.13;101098.25;5095845;28;20371;-12
2022/06/22 01:59:58;;;;;;;;;;;25.50;42.30;;;29.63;26.97;101103.50;5114462;28;19924;-12
2022/06/22 02:02:33;;;;;;;;;;;25.50;42.30;;;29.58;26.91;101100.38;5095334;28;20256;-12
2022/06/22 02:05:33;;;;;;;;;;;25.40;42.20;;;29.60;27.15;101109.16;5096182;28;19959;-12
2022/06/22 02:08:18;;;;;;;;;;;25.40;42.20;;;29.59;27.18;101108.34;5114358;28;19916;-12
2022/06/22 02:11:04;;;;;;;;;;;25.40;42.20;;;29.59;27.14;101113.72;5114263;28;19923;-12
2022/06/22 02:13:42;;;;;;;;;;;25.40;42.20;;;29.59;26.99;101118.25;5096634;28;19923;-12
2022/06/22 02:16:26;;;;;;;;;;;25.40;42.20;;;29.55;27.18;101098.81;5095784;28;19922;-12
2022/06/22 02:19:10;;;;;;;;;;;25.40;42.20;;;29.54;26.93;101103.38;5114114;28;19923;-12
2022/06/22 02:22:02;;;;;;;;;;;25.40;42.30;;;29.59;27.04;101105.63;5114693;28;19916;-12
2022/06/22 02:24:37;;;;;;;;;;;25.40;42.20;;;29.59;26.95;101102.94;5109691;28;20347;-12
2022/06/22 02:27:07;;;;;;;;;;;25.40;42.20;;;29.59;26.98;101102.06;5114472;28;19958;-12
2022/06/22 02:29:44;;;;;;;;;;;25.40;42.20;;;29.54;26.90;101097.97;5096070;28;19915;-12
2022/06/22 02:32:11;;;;;;;;;;;25.40;42.20;;;29.57;27.01;101096.84;5114580;28;19939;-12
2022/06/22 02:34:41;;;;;;;;;;;25.40;42.20;;;29.53;27.11;101082.81;5113977;28;19915;-12
2022/06/22 02:37:08;;;;;;;;;;;25.40;42.20;;;29.51;26.96;101071.34;5114178;28;19916;-12
2022/06/22 02:39:37;;;;;;;;;;;25.40;42.30;;;29.53;26.90;101080.09;5095491;28;20372;-12
2022/06/22 02:44:48;;;;;;;;;;;25.40;42.30;;;29.54;26.94;101086.38;5114183;28;20011;-12
2022/06/22 02:47:29;;;;;;;;;;;25.40;42.30;;;29.55;27.04;101098.81;5113666;28;20021;-12
2022/06/22 02:50:02;;;;;;;;;;;25.40;42.30;;;29.52;26.91;101082.94;5113707;28;19923;-12
2022/06/22 02:52:39;;;;;;;;;;;25.40;42.30;;;29.52;26.99;101075.75;5093387;28;19915;-12
2022/06/22 02:55:09;;;;;;;;;;;25.40;42.30;;;29.50;27.00;101077.72;5113611;28;19919;-12
2022/06/22 02:57:53;;;;;;;;;;;25.40;42.30;;;29.56;27.03;101081.69;5095630;28;20362;-12
2022/06/22 03:00:22;;;;;;;;;;;25.40;42.30;;;29.50;26.88;101068.78;5095849;28;19915;-12
2022/06/22 03:02:53;;;;;;;;;;;25.40;42.30;;;29.51;26.96;101065.94;5113883;28;20276;-12
2022/06/22 03:05:20;;;;;;;;;;;25.40;42.30;;;29.52;26.92;101061.41;5095653;28;19998;-12
2022/06/22 03:07:48;;;;;;;;;;;25.40;42.20;;;29.56;26.93;101070.91;5113363;28;19965;-12
2022/06/22 03:10:22;;;;;;;;;;;25.40;42.20;;;29.55;27.00;101061.09;5095128;28;19915;-12
2022/06/22 03:12:48;;;;;;;;;;;25.40;42.10;;;29.59;26.91;101073.31;5095290;28;19916;-12
2022/06/22 03:15:18;;;;;;;;;;;25.40;42.10;;;29.60;26.92;101077.69;5113399;28;19916;-12
2022/06/22 03:17:44;;;;;;;;;;;25.40;42.10;;;29.61;27.10;101070.47;5095510;28;20015;-12
2022/06/22 03:20:20;;;;;;;;;;;25.50;42.10;;;29.59;26.80;101056.25;5113218;28;19977;-12
2022/06/22 03:22:51;;;;;;;;;;;25.50;42.10;;;29.63;26.80;101061.22;5095443;28;20367;-12
2022/06/22 03:25:26;;;;;;;;;;;25.50;42.00;;;29.67;26.95;101067.16;5095294;28;19920;-12
2022/06/22 03:27:54;;;;;;;;;;;25.50;42.00;;;29.68;26.79;101063.47;5095014;28;20340;-12
2022/06/22 03:30:27;;;;;;;;;;;25.60;42.00;;;29.70;26.92;101061.47;5094930;28;20497;-12
2022/06/22 03:33:00;;;;;;;;;;;25.60;41.90;;;29.71;27.11;101065.88;5095027;28;19955;-12
2022/06/22 03:35:43;;;;;;;;;;;25.60;41.90;;;29.69;26.87;101068.72;5093122;28;19964;-12
2022/06/22 03:38:10;;;;;;;;;;;25.60;41.80;;;29.78;26.95;101083.19;5094186;28;20420;-12
2022/06/22 03:40:41;;;;;;;;;;;25.70;41.80;;;29.73;26.93;101064.72;5094132;28;19958;-12
2022/06/22 03:43:11;;;;;;;;;;;25.70;41.70;;;29.82;26.80;101072.94;5093940;28;19959;-12
2022/06/22 03:45:47;;;;;;;;;;;25.80;41.80;;;29.83;26.76;101055.78;5093557;28;20333;-12
2022/06/22 03:48:27;;;;;;;;;;;25.80;42.20;;;29.88;26.81;101058.88;5094132;28;19920;-12
2022/06/22 03:51:07;;;;;;;;;;;25.90;41.50;;;29.96;26.70;101064.38;5112995;28;19923;-12
2022/06/22 03:53:55;;;;;;;;;;;26.00;41.50;;;29.97;26.78;101059.81;5113281;28;19915;-12
2022/06/22 03:56:24;;;;;;;;;;;26.10;41.40;;;29.99;26.67;101066.78;5113014;28;19916;-12
2022/06/22 03:58:51;;;;;;;;;;;26.10;41.30;;;30.05;26.69;101070.72;5092710;28;19916;-12
2022/06/22 04:01:18;;;;;;;;;;;26.20;41.30;;;30.08;26.58;101068.56;5112793;28;19923;-12
2022/06/22 04:03:44;;;;;;;;;;;26.20;41.20;;;30.15;26.67;101079.59;5115119;28;20444;-12
2022/06/22 04:06:26;;;;;;;;;;;26.30;41.20;;;30.16;26.58;101078.59;5116317;28;19916;-12
2022/06/22 04:08:53;;;;;;;;;;;26.30;41.20;;;30.18;26.52;101075.75;5116315;28;19916;-12
2022/06/22 04:11:25;;;;;;;;;;;26.30;41.10;;;30.25;26.51;101077.69;5116146;28;19923;-12
2022/06/22 04:13:58;;;;;;;;;;;26.40;41.20;;;30.26;26.47;101082.09;5098262;28;19916;-12
2022/06/22 04:16:36;;;;;;;;;;;26.40;41.10;;;30.26;26.44;101074.00;5097805;28;19923;-12
2022/06/22 04:19:08;;;;;;;;;;;26.40;41.00;;;30.35;26.50;101085.72;5115961;28;20429;-12
2022/06/22 04:21:38;;;;;;;;;;;26.50;41.00;;;30.33;26.44;101087.72;5097952;28;19915;-12
2022/06/22 04:24:29;;;;;;;;;;;26.50;41.10;;;30.42;26.56;101104.88;5098143;28;20006;-12
2022/06/22 04:27:07;;;;;;;;;;;26.60;41.10;;;30.40;26.52;101093.38;5098069;28;19915;-12
2022/06/22 04:29:46;;;;;;;;;;;26.60;41.00;;;30.50;26.54;101104.13;5097990;28;20008;-12
2022/06/22 04:32:17;;;;;;;;;;;26.60;41.00;;;30.50;26.31;101093.34;5097949;28;19915;-12
2022/06/22 04:34:46;;;;;;;;;;;26.60;40.90;;;30.56;26.41;101095.44;5096667;28;19966;-12
2022/06/22 04:37:36;;;;;;;;;;;26.70;41.00;;;30.58;26.36;101088.03;5098031;28;19951;-12
2022/06/22 04:40:19;;;;;;;;;;;26.70;41.50;;;30.58;26.31;101086.16;5097454;28;20014;-12
2022/06/22 04:42:45;;;;;;;;;;;26.70;40.90;;;30.63;26.35;101097.34;5116092;28;19922;-12
2022/06/22 04:45:44;;;;;;;;;;;26.70;40.80;;;30.70;26.30;101104.84;5115772;28;19965;-12
2022/06/22 04:48:20;;;;;;;;;;;26.80;40.90;;;30.73;26.38;101107.22;5059631;28;19915;-12
2022/06/22 04:50:48;;;;;;;;;;;26.90;40.90;;;30.70;26.41;101108.38;5097363;28;19922;-12
2022/06/22 04:53:29;;;;;;;;;;;26.90;41.40;;;30.78;26.29;101121.13;5115380;28;19916;-12
2022/06/22 04:55:55;;;;;;;;;;;26.90;40.80;;;30.79;26.20;101131.75;5115077;28;19915;-12
2022/06/22 04:58:42;;;;;;;;;;;26.90;40.80;;;30.78;26.02;101119.25;5115018;28;19953;-12
2022/06/22 05:01:12;;;;;;;;;;;26.90;40.80;;;30.84;26.26;101124.03;5096662;28;19923;-12
2022/06/22 05:03:38;;;;;;;;;;;27.00;40.70;;;30.89;26.11;101130.81;5097775;28;19923;-12
2022/06/22 05:06:13;;;;;;;;;;;27.00;40.60;;;30.91;26.16;101126.13;5115726;28;19933;-12
2022/06/22 05:08:45;;;;;;;;;;;27.10;40.60;;;30.94;26.05;101123.09;5115285;28;19965;-12
2022/06/22 05:11:22;;;;;;;;;;;27.10;40.50;;;30.98;26.31;101127.25;5097407;28;19916;-12
2022/06/22 05:13:50;;;;;;;;;;;27.10;40.40;;;31.03;25.94;101133.00;5096864;28;19916;-12
2022/06/22 05:16:20;;;;;;;;;;;27.10;40.30;;;30.99;26.01;101116.28;5096086;28;20363;-12
2022/06/22 05:18:48;;;;;;;;;;;27.20;40.30;;;31.02;26.08;101107.00;5097055;28;19915;-12
2022/06/22 05:21:39;;;;;;;;;;;27.20;40.30;;;31.12;26.01;101131.22;5097188;28;19915;-12
2022/06/22 05:24:30;;;;;;;;;;;27.20;40.20;;;31.13;25.85;101147.28;5115358;28;20010;-12
2022/06/22 05:26:58;;;;;;;;;;;27.20;40.20;;;31.16;25.95;101146.13;5115106;28;19941;-12
2022/06/22 05:29:28;;;;;;;;;;;27.30;40.20;;;31.20;25.70;101148.34;5114711;28;20367;-12
2022/06/22 05:31:57;;;;;;;;;;;27.30;40.20;;;31.18;25.72;101127.91;5115266;28;19916;-12
2022/06/22 05:34:25;;;;;;;;;;;27.30;40.10;;;31.26;25.73;101135.22;5114965;28;19916;-12
2022/06/22 05:36:57;;;;;;;;;;;27.30;40.00;;;31.26;25.77;101127.97;5096557;28;19916;-12
2022/06/22 05:39:23;;;;;;;;;;;27.40;40.10;;;31.28;25.60;101122.41;5114703;28;19988;-12
2022/06/22 05:41:48;;;;;;;;;;;27.40;40.00;;;31.29;25.79;101107.88;5096619;28;19915;-12
2022/06/22 05:44:17;;;;;;;;;;;27.50;40.00;;;31.34;25.73;101111.84;5114721;28;19937;-12
2022/06/22 05:46:51;;;;;;;;;;;27.50;39.90;;;31.34;25.51;101116.38;5114703;28;20420;-12
2022/06/22 05:49:17;;;;;;;;;;;27.50;39.90;;;31.39;25.56;101120.31;5115143;28;19916;-12
2022/06/22 05:51:54;;;;;;;;;;;27.50;39.90;;;31.44;25.45;101108.16;5114900;28;19916;-12
2022/06/22 05:54:41;;;;;;;;;;;27.50;39.90;;;31.48;25.57;101098.75;5079509;28;19922;-12
2022/06/22 05:57:19;;;;;;;;;;;27.50;39.80;;;31.50;25.32;101102.13;5114611;28;19923;-12
2022/06/22 06:00:10;;;;;;;;;;;27.50;39.90;;;31.43;25.66;101088.41;5096062;28;19922;-12
2022/06/22 06:02:48;;;;;;;;;;;27.50;39.90;;;31.51;25.46;101093.06;5114590;28;19915;-12
2022/06/22 06:05:37;;;;;;;;;;;27.50;39.90;;;31.52;25.56;101090.16;5114221;28;19924;-12
2022/06/22 06:08:08;;;;;;;;;;;27.50;39.90;;;31.50;25.34;101080.50;5095900;28;19916;-12
2022/06/22 06:10:38;;;;;;;;;;;27.50;39.90;;;31.57;25.33;101090.56;5078664;28;20417;-12
2022/06/22 06:13:15;;;;;;;;;;;27.60;39.90;;;31.63;25.18;101083.66;5114221;28;19922;-12
2022/06/22 06:15:41;;;;;;;;;;;27.60;39.80;;;31.60;25.41;101066.91;5113608;28;20010;-12
2022/06/22 06:18:15;;;;;;;;;;;27.60;39.80;;;31.64;25.18;101076.38;5113580;28;19959;-12
2022/06/22 06:20:43;;;;;;;;;;;27.60;39.80;;;31.69;25.08;101074.91;5095918;28;20002;-12
2022/06/22 06:23:38;;;;;;;;;;;27.70;39.80;;;31.73;25.18;101078.97;5093939;28;19939;-12
2022/06/22 06:29:07;;;;;;;;;;;27.80;39.70;;;31.75;25.26;101078.81;5045566;28;20447;-12
2022/06/22 06:31:54;;;;;;;;;;;27.80;39.60;;;31.82;25.20;101089.84;5096008;28;19915;-12
2022/06/22 06:34:25;;;;;;;;;;;27.80;39.50;;;31.83;25.17;101095.09;5114050;28;19976;-12
2022/06/22 06:37:11;;;;;;;;;;;27.90;39.50;;;31.88;25.01;101083.78;5095267;28;19937;-12
2022/06/22 06:39:43;;;;;;;;;;;27.90;39.50;;;31.87;25.04;101080.22;5095749;28;19950;-12
2022/06/22 06:42:18;;;;;;;;;;;27.90;39.40;;;31.93;25.08;101087.69;5113678;28;19916;-13
2022/06/22 06:44:46;;;;;;;;;;;28.00;39.40;;;31.88;25.00;101087.31;5095236;28;19922;-13
2022/06/22 06:47:15;;;;;;;;;;;28.00;39.40;;;31.99;25.03;101099.69;5113476;28;19915;-13
2022/06/22 06:49:50;;;;;;;;;;;28.00;39.30;;;31.97;25.12;101084.66;5113639;28;19955;-13
2022/06/22 06:52:41;;;;;;;;;;;28.00;39.30;;;32.06;24.87;101091.78;5095697;28;19916;-13
2022/06/22 06:55:12;;;;;;;;;;;28.10;39.30;;;32.06;24.67;101089.06;5113403;28;20022;-13
2022/06/22 06:57:41;;;;;;;;;;;28.10;39.20;;;32.03;24.72;101092.13;5113868;28;19920;-13
2022/06/22 07:00:11;;;;;;;;;;;28.10;39.20;;;32.10;24.91;101096.75;5095480;28;19916;-12
2022/06/22 07:02:41;;;;;;;;;;;28.10;39.20;;;32.12;24.63;101092.00;5095060;28;19915;-13
2022/06/22 07:05:12;;;;;;;;;;;28.20;39.20;;;32.15;24.54;101101.66;5113287;28;19930;-13
2022/06/22 07:07:53;;;;;;;;;;;28.20;39.20;;;32.14;24.48;101099.97;5095165;28;19915;-13
2022/06/22 07:10:28;;;;;;;;;;;28.20;39.10;;;32.19;24.44;101113.00;5094887;28;19954;-13
2022/06/22 07:12:58;;;;;;;;;;;28.20;39.10;;;32.22;24.64;101126.22;5095070;28;19915;-13
2022/06/22 07:15:28;;;;;;;;;;;28.30;39.20;;;32.19;24.50;101121.97;5094901;28;19915;-12
2022/06/22 07:17:56;;;;;;;;;;;28.20;39.00;;;32.19;24.45;101118.41;5112986;28;20367;-12
2022/06/22 07:20:24;;;;;;;;;;;28.20;39.00;;;32.22;24.84;101120.78;5113037;28;19915;-12
2022/06/22 07:23:10;;;;;;;;;;;28.20;39.00;;;32.29;24.66;101133.53;5113124;28;20283;-12
2022/06/22 07:25:45;;;;;;;;;;;28.20;39.10;;;32.27;24.49;101138.22;5113077;28;19919;-12
2022/06/22 07:28:17;;;;;;;;;;;28.20;39.00;;;32.23;24.42;101138.75;5094829;28;19959;-12
2022/06/22 07:30:47;;;;;;;;;;;28.20;39.10;;;32.26;24.57;101128.44;5094431;28;20006;-12
2022/06/22 07:33:32;;;;;;;;;;;28.20;39.10;;;32.31;24.68;101130.63;5112933;28;20381;-12
2022/06/22 07:36:09;;;;;;;;;;;28.30;39.10;;;32.29;24.47;101122.69;5095065;28;20240;-12
2022/06/22 07:38:47;;;;;;;;;;;28.20;39.00;;;32.31;24.58;101126.06;5115054;28;20010;-12
2022/06/22 07:41:18;;;;;;;;;;;28.20;39.10;;;32.29;24.32;101120.00;5098562;28;19930;-12
2022/06/22 07:43:46;;;;;;;;;;;28.20;39.00;;;32.31;24.33;101120.66;5081527;28;19927;-13
2022/06/22 07:46:21;;;;;;;;;;;28.30;39.10;;;32.29;24.89;101114.56;5116503;28;19920;-12
2022/06/22 07:48:48;;;;;;;;;;;28.20;39.10;;;32.31;24.40;101123.38;5097842;28;19923;-13
2022/06/22 07:51:22;;;;;;;;;;;28.20;39.10;;;32.32;24.31;101119.63;5098189;28;20488;-13
2022/06/22 07:53:59;;;;;;;;;;;28.20;39.10;;;32.31;24.31;101109.84;5098571;28;19919;-13
2022/06/22 07:56:46;;;;;;;;;;;28.20;39.10;;;32.28;24.61;101112.88;5098384;28;19915;-13
2022/06/22 07:59:18;;;;;;;;;;;28.20;39.10;;;32.30;24.73;101115.41;5116025;28;19915;-11
2022/06/22 08:01:45;;;;;;;;;;;28.20;39.20;;;32.24;24.30;101099.81;5096586;28;20410;-11
2022/06/22 08:04:17;;;;;;;;;;;28.20;39.20;;;32.28;24.33;101112.88;5098103;28;19968;-12
2022/06/22 08:06:50;;;;;;;;;;;28.10;39.30;;;32.30;24.22;101116.25;5115774;28;19922;-12
2022/06/22 08:09:21;;;;;;;;;;;28.10;39.20;;;32.31;24.36;101117.09;5114664;28;19915;-12
2022/06/22 08:11:55;;;;;;;;;;;28.10;39.20;;;32.28;24.51;101112.88;5097253;28;20436;-13
2022/06/22 08:14:25;;;;;;;;;;;28.20;39.20;;;32.25;24.41;101109.66;5098257;28;19915;-12
2022/06/22 08:16:57;;;;;;;;;;;28.10;39.20;;;32.25;24.53;101115.06;5097248;28;20382;-12
2022/06/22 08:19:27;;;;;;;;;;;28.10;39.10;;;32.28;24.61;101114.75;5097520;28;19916;-13
2022/06/22 08:21:58;;;;;;;;;;;28.10;39.10;;;32.27;24.64;101116.56;5097432;28;19968;-13
2022/06/22 08:24:24;;;;;;;;;;;28.10;39.20;;;32.22;24.68;101108.09;5115753;28;20311;-11
2022/06/22 08:26:51;;;;;;;;;;;28.10;39.10;;;32.19;24.38;101105.72;5115585;28;19984;-13
2022/06/22 08:29:19;;;;;;;;;;;28.10;39.20;;;32.20;24.25;101104.72;5116074;28;19920;-13
2022/06/22 08:31:50;;;;;;;;;;;28.00;39.10;;;32.20;24.26;101120.13;5115257;28;19916;-13
2022/06/22 08:34:21;;;;;;;;;;;28.00;39.20;;;32.12;24.40;101110.94;5097626;28;20010;-13
2022/06/22 08:36:51;;;;;;;;;;;27.90;39.20;;;32.17;24.39;101126.69;5097501;28;20014;-11
2022/06/22 08:39:31;;;;;;;;;;;27.90;39.30;;;32.15;24.69;101122.47;5096110;28;19920;-12
2022/06/22 08:42:11;;;;;;;;;;;27.90;39.40;;;32.13;24.44;101125.34;5078460;28;20363;-12
2022/06/22 08:45:17;;;;;;;;;;;27.80;39.40;;;32.10;24.55;101125.66;5097076;28;19937;-11
2022/06/22 08:48:17;;;;;;;;;;;27.80;39.50;;;32.03;24.77;101119.19;5115042;28;19915;-12
2022/06/22 08:50:59;;;;;;;;;;;27.80;39.50;;;32.02;24.78;101120.19;5113802;28;19958;-12
2022/06/22 08:53:47;;;;;;;;;;;27.70;39.50;;;31.93;24.39;101108.47;5096481;28;19924;-12
2022/06/22 08:56:38;;;;;;;;;;;27.70;39.60;;;31.94;24.74;101119.13;5096726;28;20367;-12
2022/06/22 08:59:18;;;;;;;;;;;27.60;39.60;;;31.92;24.66;101121.13;5096427;28;19922;-12
2022/06/22 09:01:57;;;;;;;;;;;27.60;39.60;;;31.92;24.83;101134.66;5096826;28;19922;-12
2022/06/22 09:04:41;;;;;;;;;;;27.60;39.70;;;31.88;24.56;101118.94;5114978;28;20359;-12
2022/06/22 09:07:29;;;;;;;;;;;27.60;39.70;;;31.86;24.74;101123.63;5115554;28;19939;-12
2022/06/22 09:10:14;;;;;;;;;;;27.50;39.70;;;31.83;24.62;101121.28;5096956;28;19924;-12
2022/06/22 09:12:50;;;;;;;;;;;27.50;39.70;;;31.81;24.94;101137.66;5114629;28;19916;-12
2022/06/22 09:15:44;;;;;;;;;;;27.50;39.90;;;31.79;24.70;101136.94;5114516;28;19916;-12
2022/06/22 09:18:26;;;;;;;;;;;27.50;39.80;;;31.72;24.72;101135.91;5095302;28;19967;-12
2022/06/22 09:21:13;;;;;;;;;;;27.50;39.90;;;31.73;24.72;101134.91;5096650;28;20003;-12
2022/06/22 09:23:54;;;;;;;;;;;27.40;39.90;;;31.66;24.86;101129.28;5114868;28;20348;-13
2022/06/22 09:26:37;;;;;;;;;;;27.40;39.90;;;31.68;24.94;101143.50;5094975;28;19923;-13
2022/06/22 09:29:29;;;;;;;;;;;27.40;39.90;;;31.66;25.04;101145.50;5114705;28;20276;-14
2022/06/22 09:31:59;;;;;;;;;;;27.40;40.00;;;31.65;24.92;101145.66;5101615;28;19922;-13
2022/06/22 09:34:47;;;;;;;;;;;27.30;40.00;;;31.63;24.75;101136.88;5114813;28;19923;-13
2022/06/22 09:37:44;;;;;;;;;;;27.30;40.00;;;31.60;24.79;101148.00;5094613;28;19946;-13
2022/06/22 09:40:17;;;;;;;;;;;27.30;40.10;;;31.56;25.15;101150.19;5112933;28;19915;-13
2022/06/22 09:42:54;;;;;;;;;;;27.30;40.10;;;31.56;25.05;101159.13;5113728;28;19923;-13
2022/06/22 09:45:29;;;;;;;;;;;27.30;40.10;;;31.54;24.87;101155.75;5095345;28;20359;-13
2022/06/22 09:48:32;;;;;;;;;;;27.30;40.10;;;31.48;25.17;101147.38;5114166;28;19981;-13
2022/06/22 09:51:22;;;;;;;;;;;27.20;40.10;;;31.51;25.00;101152.50;5076349;28;19916;-13
2022/06/22 09:53:48;;;;;;;;;;;27.20;40.10;;;31.49;24.89;101154.47;5114759;28;19966;-13
2022/06/22 09:56:35;;;;;;;;;;;27.20;40.10;;;31.46;25.16;101150.25;5114193;28;19955;-11
2022/06/22 09:59:04;;;;;;;;;;;27.20;40.20;;;31.47;24.96;101153.78;5114441;28;19922;-11
2022/06/22 10:01:47;;;;;;;;;;;27.20;40.20;;;31.45;24.91;101153.09;5095586;28;19916;-11
2022/06/22 10:04:15;;;;;;;;;;;27.20;40.20;;;31.44;25.03;101156.81;5114061;28;19923;-11
2022/06/22 10:07:12;;;;;;;;;;;27.10;40.20;;;31.44;24.97;101148.69;5114094;28;20381;-11
2022/06/22 10:09:56;;;;;;;;;;;27.20;40.20;;;31.36;25.09;101144.09;5113950;28;19915;-12
2022/06/22 10:12:36;;;;;;;;;;;27.20;40.20;;;31.40;24.98;101145.47;5114213;28;19915;-12
2022/06/22 10:16:00;;;;;;;;;;;27.10;40.20;;;31.39;24.94;101141.91;5095201;28;19926;-11
2022/06/22 10:18:42;;;;;;;;;;;27.10;40.20;;;31.33;25.14;101134.44;5031196;28;19960;-11
2022/06/22 10:21:39;;;;;;;;;;;27.10;40.20;;;31.36;25.00;101144.94;5014773;28;19965;-11
2022/06/22 10:24:13;;;;;;;;;;;27.10;40.20;;;31.35;25.26;101145.09;5095231;28;19916;-11
2022/06/22 10:27:22;;;;;;;;;;;27.10;40.20;;;31.33;25.33;101142.53;5113460;28;19915;-11
2022/06/22 10:30:24;;;;;;;;;;;27.10;40.20;;;31.30;25.13;101136.59;5030550;28;19920;-11
2022/06/22 10:33:27;;;;;;;;;;;27.10;40.20;;;31.32;25.20;101146.25;5113680;28;19916;-11
2022/06/22 10:36:16;;;;;;;;;;;27.10;40.20;;;31.34;25.04;101143.38;5094448;28;19916;-13
2022/06/22 10:38:56;;;;;;;;;;;27.10;40.20;;;31.30;25.12;101137.44;5095115;28;19919;-12
2022/06/22 10:47:54;;;;;;;;;;;27.10;40.20;;;31.29;25.31;101140.31;5114183;28;19916;-12
2022/06/22 10:50:33;;;;;;;;;;;27.00;40.20;;;31.23;25.20;101130.97;5095775;28;20010;-12
2022/06/22 10:53:18;;;;;;;;;;;27.00;40.20;;;31.23;25.09;101117.47;5094771;28;19915;-12
2022/06/22 10:55:56;;;;;;;;;;;27.00;40.30;;;31.26;25.13;101127.97;5111911;28;19916;-12
2022/06/22 10:58:21;;;;;;;;;;;27.00;40.30;;;31.26;25.18;101125.28;5112939;28;20325;-11
2022/06/22 11:01:10;;;;;;;;;;;27.00;40.30;;;31.23;25.25;101116.63;5111222;28;19982;-13
2022/06/22 11:03:57;;;;;;;;;;;27.00;40.30;;;31.24;25.28;101119.19;5095028;28;19922;-11
2022/06/22 11:06:56;;;;;;;;;;;27.00;40.40;;;31.24;25.19;101116.50;5094552;28;19970;-13
2022/06/22 11:09:31;;;;;;;;;;;27.00;40.30;;;31.22;25.29;101118.47;5113288;28;20332;-13
2022/06/22 11:12:34;;;;;;;;;;;27.00;40.30;;;31.21;25.36;101119.50;5112882;28;20020;-11
2022/06/22 11:15:33;;;;;;;;;;;27.00;40.40;;;31.19;25.42;101107.97;5094800;28;19937;-11
2022/06/22 11:18:29;;;;;;;;;;;27.00;40.40;;;31.13;25.43;101098.66;5093880;28;19938;-12
2022/06/22 11:21:39;;;;;;;;;;;27.00;40.40;;;31.16;25.25;101106.47;5110527;28;19965;-14
2022/06/22 11:24:45;;;;;;;;;;;27.00;40.40;;;31.11;25.55;101102.53;5110625;28;19916;-13
2022/06/22 11:30:48;;;;;;;;;;;26.90;40.50;;;31.10;25.41;101107.06;5112591;28;20010;-11
2022/06/22 11:33:29;;;;;;;;;;;26.90;40.50;;;31.12;25.64;101115.84;5111286;28;19916;-11
2022/06/22 11:36:18;;;;;;;;;;;26.90;40.40;;;31.16;25.33;101113.72;5089124;28;19974;-11
2022/06/22 11:39:11;;;;;;;;;;;27.00;40.50;;;31.14;25.45;101107.59;5094577;28;19947;-12
2022/06/22 11:42:09;;;;;;;;;;;27.00;40.50;;;31.15;25.25;101114.72;5094246;28;20002;-12
2022/06/22 11:48:05;;;;;;;;;;;27.00;40.40;;;31.12;25.21;101101.50;5094552;28;19916;-13
2022/06/22 11:50:42;;;;;;;;;;;26.90;40.30;;;31.09;25.52;101091.03;5092903;28;19954;-12
2022/06/22 11:53:16;;;;;;;;;;;26.90;40.30;;;31.09;25.46;101094.59;5093599;28;19916;-12
2022/06/22 11:55:45;;;;;;;;;;;26.90;40.40;;;31.14;25.23;101111.19;5093463;28;19931;-11
2022/06/22 11:58:21;;;;;;;;;;;26.90;40.30;;;31.07;25.28;101098.44;5093963;28;20447;-11
2022/06/22 12:01:17;;;;;;;;;;;26.90;40.30;;;31.15;25.43;101103.91;5092919;28;19916;-11
2022/06/22 12:04:18;;;;;;;;;;;26.90;40.30;;;31.08;25.40;101079.38;5094016;28;20367;-11
2022/06/22 12:07:06;;;;;;;;;;;26.90;40.30;;;31.12;25.25;101090.72;5112391;28;19936;-12
2022/06/22 12:09:41;;;;;;;;;;;26.90;40.30;;;31.07;25.30;101077.66;5094173;28;19919;-12
2022/06/22 12:12:25;;;;;;;;;;;26.90;40.30;;;31.13;25.43;101093.25;5112112;28;20260;-12
2022/06/22 12:15:12;;;;;;;;;;;27.00;40.30;;;31.07;25.18;101079.53;5112406;28;19945;-12